createdAt,value
2022-11-24T00:00:53.921Z,91.95
2022-11-24T00:06:11.164Z,91.93
2022-11-24T00:11:21.318Z,92.09
2022-11-24T00:16:29.711Z,91.96
2022-11-24T00:21:37.199Z,91.84
2022-11-24T00:26:44.119Z,91.47
2022-11-24T00:31:51.213Z,91.21
2022-11-24T00:36:56.848Z,91.26
2022-11-24T00:42:04.408Z,91.14
2022-11-24T00:47:11.600Z,91.06
2022-11-24T00:52:19.049Z,91.27
2022-11-24T01:00:55.274Z,90.90
2022-11-24T01:06:08.097Z,91.02
2022-11-24T01:11:17.720Z,90.85
2022-11-24T01:16:27.963Z,91.04
2022-11-24T01:21:35.174Z,91.26
2022-11-24T01:26:42.787Z,90.97
2022-11-24T01:31:49.926Z,91.25
2022-11-24T01:36:56.980Z,91.36
2022-11-24T01:42:05.217Z,91.46
2022-11-24T01:47:35.322Z,91.45
2022-11-24T02:00:48.951Z,91.40
2022-11-24T02:06:03.815Z,91.83
2022-11-24T02:11:11.453Z,92.49
2022-11-24T02:16:19.115Z,92.73
2022-11-24T02:21:27.059Z,92.90
2022-11-24T02:26:43.038Z,93.11
2022-11-24T02:31:53.018Z,93.67
2022-11-24T02:37:00.888Z,93.70
2022-11-24T02:42:13.826Z,93.83
2022-11-24T02:47:21.321Z,94.26
2022-11-24T02:52:28.524Z,94.53
2022-11-24T02:57:34.204Z,94.44
2022-11-24T03:02:41.898Z,94.70
2022-11-24T03:07:49.685Z,95.12
2022-11-24T03:12:57.083Z,95.39
2022-11-24T03:18:04.537Z,95.54
2022-11-24T03:23:11.728Z,95.57
2022-11-24T03:28:17.308Z,95.97
2022-11-24T03:33:25.964Z,96.04
2022-11-24T03:38:33.781Z,96.35
2022-11-24T03:43:44.039Z,96.43
2022-11-24T03:48:52.125Z,96.36
2022-11-24T03:53:59.269Z,96.08
2022-11-24T03:59:06.775Z,96.01
2022-11-24T04:04:15.398Z,95.87
2022-11-24T04:09:22.889Z,95.67
2022-11-24T04:14:29.975Z,95.61
2022-11-24T04:19:37.617Z,95.56
2022-11-24T04:24:45.082Z,95.55
2022-11-24T04:29:53.313Z,95.40
2022-11-24T04:35:00.869Z,95.67
2022-11-24T04:40:10.917Z,95.44
2022-11-24T04:45:18.631Z,95.36
2022-11-24T04:50:26.102Z,95.36
2022-11-24T04:55:33.610Z,95.20
2022-11-24T05:00:39.657Z,95.19
2022-11-24T05:05:46.820Z,95.32
2022-11-24T05:10:54.547Z,95.13
2022-11-24T05:16:02.391Z,95.06
2022-11-24T05:21:09.809Z,94.88
2022-11-24T05:26:17.146Z,94.76
2022-11-24T05:31:25.734Z,94.71
2022-11-24T05:36:51.231Z,94.74
2022-11-24T05:41:58.476Z,94.60
2022-11-24T05:47:04.628Z,94.59
2022-11-24T05:52:13.110Z,94.29
2022-11-24T05:57:21.234Z,94.11
2022-11-24T06:02:28.916Z,94.10
2022-11-24T06:07:36.635Z,93.96
2022-11-24T06:12:43.921Z,93.68
2022-11-24T06:17:56.451Z,93.39
2022-11-24T06:23:03.971Z,93.16
2022-11-24T06:28:11.971Z,93.32
2022-11-24T06:33:19.687Z,93.34
2022-11-24T06:38:27.387Z,93.74
2022-11-24T06:43:35.975Z,93.81
2022-11-24T06:48:43.244Z,94.25
2022-11-24T06:53:51.559Z,94.36
2022-11-24T06:58:59.060Z,94.68
2022-11-24T07:04:06.605Z,94.80
2022-11-24T07:09:15.059Z,95.07
2022-11-24T07:14:23.023Z,95.18
2022-11-24T07:19:30.077Z,95.47
2022-11-24T07:24:37.271Z,95.55
2022-11-24T07:29:44.661Z,95.75
2022-11-24T07:34:52.642Z,95.93
2022-11-24T07:39:59.727Z,96.15
2022-11-24T07:45:06.492Z,96.47
2022-11-24T07:50:14.851Z,96.36
2022-11-24T07:55:22.971Z,96.51
2022-11-24T08:00:30.776Z,96.74
2022-11-24T08:05:49.165Z,96.97
2022-11-24T08:11:11.815Z,97.09
2022-11-24T08:16:21.731Z,97.43
2022-11-24T08:21:29.276Z,97.63
2022-11-24T08:26:36.782Z,97.93
2022-11-24T08:31:44.448Z,97.97
2022-11-24T08:36:52.650Z,98.26
2022-11-24T08:42:00.197Z,98.39
2022-11-24T08:47:07.148Z,98.58
2022-11-24T08:52:14.342Z,98.67
2022-11-24T08:57:22.130Z,98.70
2022-11-24T09:02:29.407Z,98.89
2022-11-24T09:07:35.480Z,98.96
2022-11-24T09:12:45.057Z,99.09
2022-11-24T09:17:52.480Z,99.36
2022-11-24T09:22:58.852Z,99.62
2022-11-24T09:28:06.675Z,99.75
2022-11-24T09:33:14.270Z,99.99
2022-11-24T09:38:22.917Z,100.00
2022-11-24T09:43:38.880Z,100.00
2022-11-24T09:48:52.678Z,100.00
2022-11-24T09:54:03.861Z,100.00
2022-11-24T09:59:18.313Z,100.00
2022-11-24T10:04:29.940Z,100.00
2022-11-24T10:09:52.715Z,100.00
2022-11-24T10:15:19.543Z,100.00
2022-11-24T10:20:34.913Z,100.00
2022-11-24T10:25:48.907Z,100.00
2022-11-24T10:31:14.908Z,100.00
2022-11-24T10:36:33.311Z,100.00
2022-11-24T10:41:48.832Z,100.00
2022-11-24T10:46:58.710Z,100.00
2022-11-24T10:52:13.974Z,100.00
2022-11-24T10:57:31.368Z,100.00
2022-11-24T11:02:39.279Z,100.00
2022-11-24T11:07:47.223Z,100.00
2022-11-24T11:12:55.091Z,100.00
2022-11-24T11:18:03.498Z,100.00
2022-11-24T11:23:22.162Z,100.00
2022-11-24T11:28:32.818Z,100.00
2022-11-24T11:39:18.171Z,100.00
2022-11-24T11:44:37.012Z,100.00
2022-11-24T11:49:46.220Z,100.00
2022-11-24T11:55:33.199Z,100.00
2022-11-24T12:00:47.949Z,100.00
2022-11-24T12:06:10.296Z,100.00
2022-11-24T12:11:23.574Z,100.00
2022-11-24T12:16:43.157Z,100.00
2022-11-24T12:22:08.166Z,100.00
2022-11-24T12:27:28.997Z,100.00
2022-11-24T12:32:54.429Z,100.00
2022-11-24T12:38:18.025Z,100.00
2022-11-24T12:43:32.270Z,100.00
2022-11-24T12:48:50.557Z,100.00
2022-11-24T12:53:59.662Z,100.00
2022-11-24T12:59:21.028Z,100.00
2022-11-24T13:04:36.446Z,100.00
2022-11-24T13:10:40.171Z,100.00
2022-11-24T13:22:01.194Z,100.00
2022-11-24T13:27:40.113Z,100.00
2022-11-24T13:33:00.914Z,100.00
2022-11-24T13:38:42.362Z,100.00
2022-11-24T13:44:16.701Z,100.00
2022-11-24T13:49:24.197Z,100.00
2022-11-24T13:54:32.754Z,100.00
2022-11-24T13:59:40.519Z,100.00
2022-11-24T14:04:48.142Z,100.00
2022-11-24T14:09:56.709Z,100.00
2022-11-24T14:15:24.645Z,100.00
2022-11-24T14:20:32.095Z,100.00
2022-11-24T14:25:39.880Z,100.00
2022-11-24T14:30:47.187Z,100.00
2022-11-24T14:35:54.688Z,99.77
2022-11-24T14:41:23.355Z,99.63
2022-11-24T14:46:30.690Z,99.42
2022-11-24T14:51:39.647Z,99.43
2022-11-24T14:57:00.573Z,99.54
2022-11-24T15:02:43.641Z,99.19
2022-11-24T15:07:53.641Z,97.34
2022-11-24T15:13:02.696Z,95.88
2022-11-24T15:18:28.311Z,95.36
2022-11-24T15:23:36.521Z,95.45
2022-11-24T15:28:43.816Z,95.74
2022-11-24T15:33:49.591Z,95.33
2022-11-24T15:38:57.308Z,95.01
2022-11-24T15:44:04.737Z,94.67
2022-11-24T15:49:12.096Z,94.40
2022-11-24T15:54:18.346Z,94.30
2022-11-24T15:59:25.620Z,94.79
2022-11-24T16:04:32.777Z,95.32
2022-11-24T16:09:40.657Z,95.44
2022-11-24T16:14:47.959Z,95.99
2022-11-24T16:20:00.173Z,96.27
2022-11-24T16:25:09.858Z,96.78
2022-11-24T16:30:17.725Z,97.17
2022-11-24T16:35:25.866Z,97.19
2022-11-24T16:40:33.555Z,97.07
2022-11-24T16:45:45.372Z,96.92
2022-11-24T16:50:52.979Z,97.02
2022-11-24T16:56:03.971Z,97.05
2022-11-24T17:01:12.905Z,97.32
2022-11-24T17:06:22.271Z,97.11
2022-11-24T17:11:30.850Z,97.27
2022-11-24T17:16:39.980Z,97.30
2022-11-24T17:21:47.227Z,97.40
2022-11-24T17:26:55.282Z,97.76
2022-11-24T17:32:02.645Z,97.69
2022-11-24T17:37:08.049Z,97.76
2022-11-24T17:42:15.192Z,97.75
2022-11-24T17:47:22.418Z,97.90
2022-11-24T17:52:30.326Z,98.01
2022-11-24T18:00:51.154Z,98.20
2022-11-24T18:05:58.692Z,98.40
2022-11-24T18:11:10.318Z,98.61
2022-11-24T18:16:18.895Z,98.74
2022-11-24T18:21:27.028Z,98.83
2022-11-24T18:26:35.200Z,98.97
2022-11-24T18:31:42.734Z,99.18
2022-11-24T18:36:52.660Z,99.61
2022-11-24T18:42:00.081Z,99.95
2022-11-24T18:47:07.936Z,99.97
2022-11-24T18:52:15.352Z,100.00
2022-11-24T18:57:23.878Z,100.00
2022-11-24T19:02:31.154Z,100.00
2022-11-24T19:07:38.939Z,100.00
2022-11-24T19:12:46.329Z,100.00
2022-11-24T19:17:53.809Z,100.00
2022-11-24T19:23:01.237Z,100.00
2022-11-24T19:28:09.434Z,100.00
2022-11-24T19:33:16.638Z,100.00
2022-11-24T19:38:28.478Z,100.00
2022-11-24T19:43:37.303Z,100.00
2022-11-24T19:48:44.449Z,100.00
2022-11-24T19:53:51.883Z,100.00
2022-11-24T19:58:59.617Z,100.00
2022-11-24T20:04:08.658Z,100.00
2022-11-24T20:09:17.580Z,100.00
2022-11-24T20:14:26.500Z,100.00
2022-11-24T20:19:33.953Z,100.00
2022-11-24T20:24:41.914Z,100.00
2022-11-24T20:29:49.887Z,100.00
2022-11-24T20:34:57.270Z,100.00
2022-11-24T20:40:05.076Z,100.00
2022-11-24T20:45:12.796Z,100.00
2022-11-24T20:50:20.809Z,100.00
2022-11-24T20:55:28.005Z,100.00
2022-11-24T21:00:36.409Z,100.00
2022-11-24T21:05:43.968Z,100.00
2022-11-24T21:10:57.812Z,100.00
2022-11-24T21:16:15.199Z,100.00
2022-11-24T21:21:24.473Z,100.00
2022-11-24T21:26:32.604Z,100.00
2022-11-24T21:31:40.467Z,100.00
2022-11-24T21:36:48.669Z,100.00
2022-11-24T21:41:56.050Z,100.00
2022-11-24T21:47:01.826Z,100.00
2022-11-24T21:52:09.201Z,100.00
2022-11-24T21:57:14.716Z,100.00
2022-11-24T22:02:22.461Z,100.00
2022-11-24T22:07:34.170Z,100.00
2022-11-24T22:12:42.552Z,100.00
2022-11-24T22:17:49.991Z,100.00
2022-11-24T22:22:57.231Z,100.00
2022-11-24T22:28:04.562Z,100.00
2022-11-24T22:33:10.217Z,100.00
2022-11-24T22:38:17.371Z,100.00
2022-11-24T22:43:25.729Z,100.00
2022-11-24T22:48:34.120Z,100.00
2022-11-24T22:53:42.384Z,100.00
2022-11-24T22:58:49.840Z,100.00
2022-11-24T23:03:57.058Z,100.00
2022-11-24T23:09:05.869Z,100.00
2022-11-24T23:14:15.853Z,100.00
2022-11-24T23:19:23.356Z,100.00
2022-11-24T23:24:33.228Z,100.00
2022-11-24T23:29:40.788Z,100.00
2022-11-24T23:34:47.815Z,100.00
2022-11-24T23:39:55.416Z,100.00
2022-11-24T23:45:03.611Z,100.00
2022-11-24T23:50:11.642Z,100.00
